No particular awareness of the weather is required.    There are no Weather-warnings


Meteo18 Weather Cam more information Meteo18 Weather Cam


Thunder radar more information blitzortung!


Rain radar more information rain snow radar


Visit our other weather sites:

Template documentation
and downloads

And another site



Weather Underground History page Text

Daily Summary for January 9, 2017 Units:  Both    English   Metric
« Previous Day
Next Day »
Daily Weekly Monthly Yearly Custom
  High: Low: Average:
Temperature: 41.9 °F /  5.5 °C 34.3 °F /  1.3 °C 37.9 °F /  3.3 °C
Dew Point: 41.4 °F /  5.2 °C 33.8 °F /  1.0 °C 37.4 °F /  3 °C
Humidity: 98 % 98 % 98 %
Wind Speed: 10 mph /  16.1 km/h - 2.2 mph /  3.6 km/h
Wind Gust: 14 mph /  22.5 km/h - -
Wind:- - SW
Pressure: 30.5 in /  1032.7 hPa 30.1 in /  1018.2 hPa -
Precipitation: 0.06 in /  1.5 mm    
Historical Graphs
 
 
Tabular Data for January 9, 2017
Time Temperature Dew Point Pressure Wind Wind Speed Wind Gust Humidity Rainfall Rate (Hourly)
00:02 35.6 °F /  2.0 °C 35.1 °F /  1.7 °C 30.5 in /  1032.7 hPa Calm   1 mph /  1.6 km/h 98 % 0 in /  0.0 mm
00:07 35.8 °F /  2.1 °C 35.2 °F /  1.8 °C 30.5 in /  1032.7 hPa WNW 1 mph /  1.6 km/h 1 mph /  1.6 km/h 98 % 0 in /  0.0 mm
00:12 35.6 °F /  2.0 °C 35.1 °F /  1.7 °C 30.5 in /  1032.4 hPa Calm   2 mph /  3.2 km/h 98 % 0 in /  0.0 mm
00:17 35.6 °F /  2.0 °C 35.1 °F /  1.7 °C 30.5 in /  1032.4 hPa Calm   2 mph /  3.2 km/h 98 % 0 in /  0.0 mm
00:22 35.8 °F /  2.1 °C 35.2 °F /  1.8 °C 30.5 in /  1032.4 hPa Calm   2 mph /  3.2 km/h 98 % 0 in /  0.0 mm
00:27 35.8 °F /  2.1 °C 35.2 °F /  1.8 °C 30.5 in /  1032.4 hPa Calm   2 mph /  3.2 km/h 98 % 0 in /  0.0 mm
00:32 35.8 °F /  2.1 °C 35.2 °F /  1.8 °C 30.5 in /  1032.4 hPa Calm     98 % 0 in /  0.0 mm
00:42 35.2 °F /  1.8 °C 34.7 °F /  1.5 °C 30.5 in /  1032.7 hPa Calm   4 mph /  6.4 km/h 98 % 0 in /  0.0 mm
00:52 35.2 °F /  1.8 °C 34.7 °F /  1.5 °C 30.5 in /  1032.7 hPa Calm   6 mph /  9.7 km/h 98 % 0 in /  0.0 mm
00:57 35.2 °F /  1.8 °C 34.7 °F /  1.5 °C 30.5 in /  1032.7 hPa Calm   6 mph /  9.7 km/h 98 % 0 in /  0.0 mm
01:02 35.2 °F /  1.8 °C 34.7 °F /  1.5 °C 30.5 in /  1032.4 hPa Calm   4 mph /  6.4 km/h 98 % 0 in /  0.0 mm
01:07 35.2 °F /  1.8 °C 34.7 °F /  1.5 °C 30.5 in /  1032.4 hPa Calm   1 mph /  1.6 km/h 98 % 0 in /  0.0 mm
01:12 35.1 °F /  1.7 °C 34.5 °F /  1.4 °C 30.5 in /  1032.4 hPa Calm   1 mph /  1.6 km/h 98 % 0 in /  0.0 mm
01:17 35.1 °F /  1.7 °C 34.5 °F /  1.4 °C 30.5 in /  1032.4 hPa Calm   1 mph /  1.6 km/h 98 % 0 in /  0.0 mm
01:22 35.1 °F /  1.7 °C 34.5 °F /  1.4 °C 30.5 in /  1032.1 hPa SW 1 mph /  1.6 km/h 1 mph /  1.6 km/h 98 % 0 in /  0.0 mm
01:27 35.1 °F /  1.7 °C 34.5 °F /  1.4 °C 30.5 in /  1032.4 hPa Calm   1 mph /  1.6 km/h 98 % 0 in /  0.0 mm
01:32 35.1 °F /  1.7 °C 34.5 °F /  1.4 °C 30.5 in /  1032.1 hPa Calm   1 mph /  1.6 km/h 98 % 0 in /  0.0 mm
01:37 35.2 °F /  1.8 °C 34.7 °F /  1.5 °C 30.5 in /  1032.1 hPa SSW 1 mph /  1.6 km/h 1 mph /  1.6 km/h 98 % 0 in /  0.0 mm
01:42 35.2 °F /  1.8 °C 34.7 °F /  1.5 °C 30.5 in /  1032.1 hPa Calm   2 mph /  3.2 km/h 98 % 0 in /  0.0 mm
01:47 35.2 °F /  1.8 °C 34.7 °F /  1.5 °C 30.5 in /  1032.1 hPa Calm   2 mph /  3.2 km/h 98 % 0 in /  0.0 mm
01:52 35.2 °F /  1.8 °C 34.7 °F /  1.5 °C 30.5 in /  1032.1 hPa Calm   2 mph /  3.2 km/h 98 % 0 in /  0.0 mm
01:57 35.1 °F /  1.7 °C 34.5 °F /  1.4 °C 30.5 in /  1032.1 hPa Calm   1 mph /  1.6 km/h 98 % 0 in /  0.0 mm
02:02 35.1 °F /  1.7 °C 34.5 °F /  1.4 °C 30.5 in /  1032.1 hPa Calm     98 % 0 in /  0.0 mm
02:07 34.9 °F /  1.6 °C 34.3 °F /  1.3 °C 30.5 in /  1032.1 hPa Calm     98 % 0 in /  0.0 mm
02:12 34.9 °F /  1.6 °C 34.3 °F /  1.3 °C 30.5 in /  1032.1 hPa NE 1 mph /  1.6 km/h 2 mph /  3.2 km/h 98 % 0 in /  0.0 mm
02:17 34.9 °F /  1.6 °C 34.3 °F /  1.3 °C 30.5 in /  1032.1 hPa Calm   2 mph /  3.2 km/h 98 % 0 in /  0.0 mm
02:22 34.9 °F /  1.6 °C 34.3 °F /  1.3 °C 30.5 in /  1032.1 hPa Calm   3 mph /  4.8 km/h 98 % 0 in /  0.0 mm
02:27 34.7 °F /  1.5 °C 34.2 °F /  1.2 °C 30.5 in /  1032.1 hPa Calm   3 mph /  4.8 km/h 98 % 0 in /  0.0 mm
02:32 34.9 °F /  1.6 °C 34.3 °F /  1.3 °C 30.5 in /  1032.1 hPa Calm   1 mph /  1.6 km/h 98 % 0 in /  0.0 mm
02:37 34.7 °F /  1.5 °C 34.2 °F /  1.2 °C 30.5 in /  1032.1 hPa Calm   1 mph /  1.6 km/h 98 % 0 in /  0.0 mm
02:42 34.7 °F /  1.5 °C 34.2 °F /  1.2 °C 30.5 in /  1032.1 hPa Calm   1 mph /  1.6 km/h 98 % 0 in /  0.0 mm
02:47 34.9 °F /  1.6 °C 34.3 °F /  1.3 °C 30.5 in /  1032.1 hPa Calm   2 mph /  3.2 km/h 98 % 0 in /  0.0 mm
02:52 34.9 °F /  1.6 °C 34.3 °F /  1.3 °C 30.5 in /  1032.1 hPa SSW 1 mph /  1.6 km/h 2 mph /  3.2 km/h 98 % 0 in /  0.0 mm
02:57 34.7 °F /  1.5 °C 34.2 °F /  1.2 °C 30.5 in /  1032.1 hPa West 1 mph /  1.6 km/h 2 mph /  3.2 km/h 98 % 0 in /  0.0 mm
03:02 34.9 °F /  1.6 °C 34.3 °F /  1.3 °C 30.5 in /  1032.1 hPa Calm   2 mph /  3.2 km/h 98 % 0 in /  0.0 mm
03:07 34.9 °F /  1.6 °C 34.3 °F /  1.3 °C 30.5 in /  1032.1 hPa Calm   2 mph /  3.2 km/h 98 % 0 in /  0.0 mm
03:12 34.9 °F /  1.6 °C 34.3 °F /  1.3 °C 30.5 in /  1032.1 hPa Calm   2 mph /  3.2 km/h 98 % 0 in /  0.0 mm
03:17 34.9 °F /  1.6 °C 34.3 °F /  1.3 °C 30.5 in /  1031.7 hPa Calm   1 mph /  1.6 km/h 98 % 0 in /  0.0 mm
03:22 34.9 °F /  1.6 °C 34.3 °F /  1.3 °C 30.5 in /  1031.7 hPa Calm   1 mph /  1.6 km/h 98 % 0 in /  0.0 mm
03:27 34.9 °F /  1.6 °C 34.3 °F /  1.3 °C 30.5 in /  1031.7 hPa Calm     98 % 0 in /  0.0 mm
03:32 34.9 °F /  1.6 °C 34.3 °F /  1.3 °C 30.5 in /  1031.7 hPa Calm     98 % 0 in /  0.0 mm
03:37 34.9 °F /  1.6 °C 34.3 °F /  1.3 °C 30.5 in /  1031.7 hPa Calm     98 % 0 in /  0.0 mm
03:42 34.9 °F /  1.6 °C 34.3 °F /  1.3 °C 30.5 in /  1031.7 hPa Calm     98 % 0 in /  0.0 mm
03:47 34.9 °F /  1.6 °C 34.3 °F /  1.3 °C 30.5 in /  1031.7 hPa Calm     98 % 0 in /  0.0 mm
03:52 34.7 °F /  1.5 °C 34.2 °F /  1.2 °C 30.5 in /  1031.4 hPa Calm     98 % 0 in /  0.0 mm
03:57 34.5 °F /  1.4 °C 34 °F /  1.1 °C 30.5 in /  1031.4 hPa Calm     98 % 0 in /  0.0 mm
04:02 34.5 °F /  1.4 °C 34 °F /  1.1 °C 30.5 in /  1031.4 hPa Calm     98 % 0 in /  0.0 mm
04:07 34.5 °F /  1.4 °C 34 °F /  1.1 °C 30.5 in /  1031.4 hPa Calm     98 % 0 in /  0.0 mm
04:12 34.5 °F /  1.4 °C 34 °F /  1.1 °C 30.5 in /  1031.4 hPa West 1 mph /  1.6 km/h   98 % 0 in /  0.0 mm
04:17 34.5 °F /  1.4 °C 34 °F /  1.1 °C 30.5 in /  1031.4 hPa Calm   2 mph /  3.2 km/h 98 % 0 in /  0.0 mm
04:22 34.5 °F /  1.4 °C 34 °F /  1.1 °C 30.5 in /  1031.4 hPa Calm   2 mph /  3.2 km/h 98 % 0 in /  0.0 mm
04:32 34.5 °F /  1.4 °C 34 °F /  1.1 °C 30.5 in /  1031.4 hPa Calm     98 % 0 in /  0.0 mm
04:42 34.5 °F /  1.4 °C 34 °F /  1.1 °C 30.4 in /  1031.0 hPa Calm     98 % 0 in /  0.0 mm
04:47 34.5 °F /  1.4 °C 34 °F /  1.1 °C 30.4 in /  1031.0 hPa Calm     98 % 0 in /  0.0 mm
04:52 34.5 °F /  1.4 °C 34 °F /  1.1 °C 30.4 in /  1031.0 hPa Calm     98 % 0 in /  0.0 mm
04:57 34.5 °F /  1.4 °C 34 °F /  1.1 °C 30.4 in /  1031.0 hPa Calm     98 % 0 in /  0.0 mm
05:02 34.5 °F /  1.4 °C 34 °F /  1.1 °C 30.4 in /  1031.0 hPa Calm     98 % 0 in /  0.0 mm
05:12 34.5 °F /  1.4 °C 34 °F /  1.1 °C 30.4 in /  1031.0 hPa Calm     98 % 0 in /  0.0 mm
05:17 34.5 °F /  1.4 °C 34 °F /  1.1 °C 30.4 in /  1031.0 hPa Calm     98 % 0 in /  0.0 mm
05:22 34.5 °F /  1.4 °C 34 °F /  1.1 °C 30.4 in /  1030.7 hPa Calm     98 % 0 in /  0.0 mm
05:27 34.5 °F /  1.4 °C 34 °F /  1.1 °C 30.4 in /  1031.0 hPa Calm     98 % 0 in /  0.0 mm
05:32 34.3 °F /  1.3 °C 33.8 °F /  1.0 °C 30.4 in /  1030.7 hPa Calm   2 mph /  3.2 km/h 98 % 0 in /  0.0 mm
05:37 34.3 °F /  1.3 °C 33.8 °F /  1.0 °C 30.4 in /  1031.0 hPa West 1 mph /  1.6 km/h 2 mph /  3.2 km/h 98 % 0 in /  0.0 mm
05:42 34.3 °F /  1.3 °C 33.8 °F /  1.0 °C 30.4 in /  1030.7 hPa Calm   2 mph /  3.2 km/h 98 % 0 in /  0.0 mm
05:47 34.3 °F /  1.3 °C 33.8 °F /  1.0 °C 30.4 in /  1031.0 hPa Calm   1 mph /  1.6 km/h 98 % 0 in /  0.0 mm
05:52 34.3 °F /  1.3 °C 33.8 °F /  1.0 °C 30.4 in /  1030.7 hPa Calm   1 mph /  1.6 km/h 98 % 0 in /  0.0 mm
05:57 34.3 °F /  1.3 °C 33.8 °F /  1.0 °C 30.4 in /  1030.7 hPa Calm     98 % 0 in /  0.0 mm
06:02 34.5 °F /  1.4 °C 34 °F /  1.1 °C 30.4 in /  1030.7 hPa Calm     98 % 0 in /  0.0 mm
06:07 34.5 °F /  1.4 °C 34 °F /  1.1 °C 30.4 in /  1030.7 hPa Calm     98 % 0 in /  0.0 mm
06:17 34.3 °F /  1.3 °C 33.8 °F /  1.0 °C 30.4 in /  1030.4 hPa Calm     98 % 0 in /  0.0 mm
06:22 34.5 °F /  1.4 °C 34 °F /  1.1 °C 30.4 in /  1030.4 hPa SW 1 mph /  1.6 km/h   98 % 0 in /  0.0 mm
06:27 34.5 °F /  1.4 °C 34 °F /  1.1 °C 30.4 in /  1030.7 hPa Calm     98 % 0 in /  0.0 mm
06:32 34.3 °F /  1.3 °C 33.8 °F /  1.0 °C 30.4 in /  1030.4 hPa Calm   2 mph /  3.2 km/h 98 % 0 in /  0.0 mm
06:37 34.3 °F /  1.3 °C 33.8 °F /  1.0 °C 30.4 in /  1030.4 hPa Calm   2 mph /  3.2 km/h 98 % 0 in /  0.0 mm
06:42 34.5 °F /  1.4 °C 34 °F /  1.1 °C 30.4 in /  1030.4 hPa Calm   2 mph /  3.2 km/h 98 % 0 in /  0.0 mm
06:52 34.5 °F /  1.4 °C 34 °F /  1.1 °C 30.4 in /  1030.4 hPa Calm     98 % 0 in /  0.0 mm
06:57 34.5 °F /  1.4 °C 34 °F /  1.1 °C 30.4 in /  1030.4 hPa Calm     98 % 0 in /  0.0 mm
07:02 34.5 °F /  1.4 °C 34 °F /  1.1 °C 30.4 in /  1030.4 hPa Calm     98 % 0 in /  0.0 mm
07:12 34.5 °F /  1.4 °C 34 °F /  1.1 °C 30.4 in /  1030.4 hPa Calm     98 % 0 in /  0.0 mm
07:17 34.5 °F /  1.4 °C 34 °F /  1.1 °C 30.4 in /  1030.4 hPa Calm     98 % 0 in /  0.0 mm
07:22 34.5 °F /  1.4 °C 34 °F /  1.1 °C 30.4 in /  1030.4 hPa Calm     98 % 0 in /  0.0 mm
07:32 34.5 °F /  1.4 °C 34 °F /  1.1 °C 30.4 in /  1030.4 hPa Calm     98 % 0 in /  0.0 mm
07:37 34.5 °F /  1.4 °C 34 °F /  1.1 °C 30.4 in /  1030.0 hPa Calm     98 % 0 in /  0.0 mm
07:42 34.9 °F /  1.6 °C 34.3 °F /  1.3 °C 30.4 in /  1030.0 hPa Calm     98 % 0 in /  0.0 mm
07:47 34.9 °F /  1.6 °C 34.3 °F /  1.3 °C 30.4 in /  1030.0 hPa Calm     98 % 0 in /  0.0 mm
07:52 34.9 °F /  1.6 °C 34.3 °F /  1.3 °C 30.4 in /  1030.0 hPa Calm     98 % 0 in /  0.0 mm
07:57 34.9 °F /  1.6 °C 34.3 °F /  1.3 °C 30.4 in /  1030.0 hPa Calm     98 % 0 in /  0.0 mm
08:02 34.9 °F /  1.6 °C 34.3 °F /  1.3 °C 30.4 in /  1030.0 hPa SSW 1 mph /  1.6 km/h 2 mph /  3.2 km/h 98 % 0 in /  0.0 mm
08:07 35.1 °F /  1.7 °C 34.5 °F /  1.4 °C 30.4 in /  1030.0 hPa Calm   2 mph /  3.2 km/h 98 % 0 in /  0.0 mm
08:12 35.1 °F /  1.7 °C 34.5 °F /  1.4 °C 30.4 in /  1030.0 hPa Calm   2 mph /  3.2 km/h 98 % 0 in /  0.0 mm
08:17 35.1 °F /  1.7 °C 34.5 °F /  1.4 °C 30.4 in /  1030.0 hPa Calm   2 mph /  3.2 km/h 98 % 0 in /  0.0 mm
08:22 35.1 °F /  1.7 °C 34.5 °F /  1.4 °C 30.4 in /  1030.0 hPa Calm     98 % 0 in /  0.0 mm
08:27 35.1 °F /  1.7 °C 34.5 °F /  1.4 °C 30.4 in /  1030.0 hPa Calm     98 % 0 in /  0.0 mm
08:32 35.1 °F /  1.7 °C 34.5 °F /  1.4 °C 30.4 in /  1030.0 hPa Calm     98 % 0 in /  0.0 mm
08:37 35.1 °F /  1.7 °C 34.5 °F /  1.4 °C 30.4 in /  1030.0 hPa Calm     98 % 0 in /  0.0 mm
08:42 35.2 °F /  1.8 °C 34.7 °F /  1.5 °C 30.4 in /  1030.0 hPa Calm     98 % 0 in /  0.0 mm
08:47 35.2 °F /  1.8 °C 34.7 °F /  1.5 °C 30.4 in /  1030.0 hPa Calm     98 % 0 in /  0.0 mm
08:52 35.4 °F /  1.9 °C 34.9 °F /  1.6 °C 30.4 in /  1030.0 hPa Calm   6 mph /  9.7 km/h 98 % 0 in /  0.0 mm
08:57 35.6 °F /  2.0 °C 35.1 °F /  1.7 °C 30.4 in /  1030.0 hPa West 1 mph /  1.6 km/h 6 mph /  9.7 km/h 98 % 0 in /  0.0 mm
09:02 35.6 °F /  2.0 °C 35.1 °F /  1.7 °C 30.4 in /  1030.0 hPa WSW 2 mph /  3.2 km/h 6 mph /  9.7 km/h 98 % 0 in /  0.0 mm
09:12 35.8 °F /  2.1 °C 35.2 °F /  1.8 °C 30.4 in /  1030.0 hPa SW 2 mph /  3.2 km/h 4 mph /  6.4 km/h 98 % 0 in /  0.0 mm
09:22 36.1 °F /  2.3 °C 35.6 °F /  2.0 °C 30.4 in /  1030.4 hPa West 1 mph /  1.6 km/h 4 mph /  6.4 km/h 98 % 0 in /  0.0 mm
09:27 36.1 °F /  2.3 °C 35.6 °F /  2.0 °C 30.4 in /  1030.0 hPa WSW 2 mph /  3.2 km/h 4 mph /  6.4 km/h 98 % 0 in /  0.0 mm
09:32 36.1 °F /  2.3 °C 35.6 °F /  2.0 °C 30.4 in /  1030.0 hPa SW 3 mph /  4.8 km/h 4 mph /  6.4 km/h 98 % 0 in /  0.0 mm
09:37 36.1 °F /  2.3 °C 35.6 °F /  2.0 °C 30.4 in /  1030.0 hPa SSW 2 mph /  3.2 km/h 5 mph /  8.0 km/h 98 % 0 in /  0.0 mm
09:42 36.1 °F /  2.3 °C 35.6 °F /  2.0 °C 30.4 in /  1030.0 hPa SSE 2 mph /  3.2 km/h 7 mph /  11.3 km/h 98 % 0 in /  0.0 mm
09:52 36.1 °F /  2.3 °C 35.6 °F /  2.0 °C 30.4 in /  1030.0 hPa WSW 1 mph /  1.6 km/h 7 mph /  11.3 km/h 98 % 0 in /  0.0 mm
09:57 36.1 °F /  2.3 °C 35.6 °F /  2.0 °C 30.4 in /  1030.0 hPa Calm   5 mph /  8.0 km/h 98 % 0 in /  0.0 mm
10:02 36.1 °F /  2.3 °C 35.6 °F /  2.0 °C 30.4 in /  1030.0 hPa WSW 1 mph /  1.6 km/h 5 mph /  8.0 km/h 98 % 0 in /  0.0 mm
10:07 36.3 °F /  2.4 °C 35.8 °F /  2.1 °C 30.4 in /  1030.0 hPa SW 4 mph /  6.4 km/h 6 mph /  9.7 km/h 98 % 0 in /  0.0 mm
10:12 36.3 °F /  2.4 °C 35.8 °F /  2.1 °C 30.4 in /  1030.0 hPa SSW 2 mph /  3.2 km/h 6 mph /  9.7 km/h 98 % 0 in /  0.0 mm
10:17 36.3 °F /  2.4 °C 35.8 °F /  2.1 °C 30.4 in /  1030.0 hPa SSW 4 mph /  6.4 km/h 6 mph /  9.7 km/h 98 % 0 in /  0.0 mm
10:22 36.3 °F /  2.4 °C 35.8 °F /  2.1 °C 30.4 in /  1030.0 hPa SSW 1 mph /  1.6 km/h 5 mph /  8.0 km/h 98 % 0 in /  0.0 mm
10:27 36.5 °F /  2.5 °C 36 °F /  2.2 °C 30.4 in /  1029.7 hPa SSW 3 mph /  4.8 km/h 5 mph /  8.0 km/h 98 % 0 in /  0.0 mm
10:32 36.5 °F /  2.5 °C 36 °F /  2.2 °C 30.4 in /  1029.7 hPa South 2 mph /  3.2 km/h 5 mph /  8.0 km/h 98 % 0 in /  0.0 mm
10:37 36.5 °F /  2.5 °C 36 °F /  2.2 °C 30.4 in /  1029.7 hPa SSW 3 mph /  4.8 km/h 5 mph /  8.0 km/h 98 % 0 in /  0.0 mm
10:42 36.7 °F /  2.6 °C 36.1 °F /  2.3 °C 30.4 in /  1029.7 hPa SW 3 mph /  4.8 km/h 4 mph /  6.4 km/h 98 % 0 in /  0.0 mm
10:47 36.7 °F /  2.6 °C 36.1 °F /  2.3 °C 30.4 in /  1030.0 hPa SW 3 mph /  4.8 km/h 7 mph /  11.3 km/h 98 % 0 in /  0.0 mm
10:52 36.7 °F /  2.6 °C 36.1 °F /  2.3 °C 30.4 in /  1029.7 hPa SSW 5 mph /  8.0 km/h 7 mph /  11.3 km/h 98 % 0 in /  0.0 mm
10:57 36.7 °F /  2.6 °C 36.1 °F /  2.3 °C 30.4 in /  1029.7 hPa SW 3 mph /  4.8 km/h 7 mph /  11.3 km/h 98 % 0 in /  0.0 mm
11:02 36.9 °F /  2.7 °C 36.3 °F /  2.4 °C 30.4 in /  1029.7 hPa SSW 5 mph /  8.0 km/h 7 mph /  11.3 km/h 98 % 0 in /  0.0 mm
11:07 36.9 °F /  2.7 °C 36.3 °F /  2.4 °C 30.4 in /  1029.7 hPa South 5 mph /  8.0 km/h 8 mph /  12.9 km/h 98 % 0 in /  0.0 mm
11:17 37 °F /  2.8 °C 36.5 °F /  2.5 °C 30.4 in /  1029.3 hPa SSW 4 mph /  6.4 km/h 8 mph /  12.9 km/h 98 % 0 in /  0.0 mm
11:22 37 °F /  2.8 °C 36.5 °F /  2.5 °C 30.4 in /  1029.3 hPa SW 4 mph /  6.4 km/h 8 mph /  12.9 km/h 98 % 0 in /  0.0 mm
11:27 37.2 °F /  2.9 °C 36.7 °F /  2.6 °C 30.4 in /  1029.7 hPa SW 5 mph /  8.0 km/h 7 mph /  11.3 km/h 98 % 0 in /  0.0 mm
11:32 37.2 °F /  2.9 °C 36.7 °F /  2.6 °C 30.4 in /  1029.3 hPa SSW 5 mph /  8.0 km/h 7 mph /  11.3 km/h 98 % 0 in /  0.0 mm
11:37 37.4 °F /  3.0 °C 36.9 °F /  2.7 °C 30.4 in /  1029.3 hPa SSW 3 mph /  4.8 km/h 7 mph /  11.3 km/h 98 % 0 in /  0.0 mm
11:42 37.6 °F /  3.1 °C 37 °F /  2.8 °C 30.4 in /  1029.3 hPa SW 5 mph /  8.0 km/h 7 mph /  11.3 km/h 98 % 0 in /  0.0 mm
11:47 37.4 °F /  3.0 °C 36.9 °F /  2.7 °C 30.4 in /  1029.3 hPa SSW 5 mph /  8.0 km/h 7 mph /  11.3 km/h 98 % 0 in /  0.0 mm
11:52 37.6 °F /  3.1 °C 37 °F /  2.8 °C 30.4 in /  1029.3 hPa SW 5 mph /  8.0 km/h 8 mph /  12.9 km/h 98 % 0 in /  0.0 mm
11:57 37.6 °F /  3.1 °C 37 °F /  2.8 °C 30.4 in /  1029.3 hPa SSW 1 mph /  1.6 km/h 8 mph /  12.9 km/h 98 % 0 in /  0.0 mm
12:02 37.6 °F /  3.1 °C 37 °F /  2.8 °C 30.4 in /  1029.3 hPa SW 5 mph /  8.0 km/h 8 mph /  12.9 km/h 98 % 0 in /  0.0 mm
12:07 37.8 °F /  3.2 °C 37.2 °F /  2.9 °C 30.4 in /  1029.0 hPa South 3 mph /  4.8 km/h 7 mph /  11.3 km/h 98 % 0 in /  0.0 mm
12:12 37.8 °F /  3.2 °C 37.2 °F /  2.9 °C 30.4 in /  1029.0 hPa SW 6 mph /  9.7 km/h 7 mph /  11.3 km/h 98 % 0 in /  0.0 mm
12:17 37.9 °F /  3.3 °C 37.4 °F /  3.0 °C 30.4 in /  1028.7 hPa SW 5 mph /  8.0 km/h 7 mph /  11.3 km/h 98 % 0 in /  0.0 mm
12:22 37.9 °F /  3.3 °C 37.4 °F /  3.0 °C 30.4 in /  1028.7 hPa SSW 5 mph /  8.0 km/h 7 mph /  11.3 km/h 98 % 0 in /  0.0 mm
12:27 37.9 °F /  3.3 °C 37.4 °F /  3.0 °C 30.4 in /  1028.7 hPa SSW 5 mph /  8.0 km/h 8 mph /  12.9 km/h 98 % 0 in /  0.0 mm
12:32 38.1 °F /  3.4 °C 37.6 °F /  3.1 °C 30.4 in /  1028.7 hPa SSW 5 mph /  8.0 km/h 8 mph /  12.9 km/h 98 % 0 in /  0.0 mm
12:42 38.5 °F /  3.6 °C 37.9 °F /  3.3 °C 30.4 in /  1028.7 hPa WSW 3 mph /  4.8 km/h 7 mph /  11.3 km/h 98 % 0 in /  0.0 mm
12:47 38.5 °F /  3.6 °C 37.9 °F /  3.3 °C 30.4 in /  1028.3 hPa SW 3 mph /  4.8 km/h 7 mph /  11.3 km/h 98 % 0 in /  0.0 mm
12:57 38.5 °F /  3.6 °C 37.9 °F /  3.3 °C 30.4 in /  1028.3 hPa SW 5 mph /  8.0 km/h 7 mph /  11.3 km/h 98 % 0 in /  0.0 mm
13:02 38.7 °F /  3.7 °C 38.1 °F /  3.4 °C 30.4 in /  1028.0 hPa SW 5 mph /  8.0 km/h 7 mph /  11.3 km/h 98 % 0 in /  0.0 mm
13:07 38.7 °F /  3.7 °C 38.1 °F /  3.4 °C 30.4 in /  1028.0 hPa South 4 mph /  6.4 km/h 7 mph /  11.3 km/h 98 % 0 in /  0.0 mm
13:12 38.8 °F /  3.8 °C 38.3 °F /  3.5 °C 30.4 in /  1028.0 hPa SW 5 mph /  8.0 km/h 7 mph /  11.3 km/h 98 % 0 in /  0.0 mm
13:17 38.8 °F /  3.8 °C 38.3 °F /  3.5 °C 30.4 in /  1027.7 hPa SW 3 mph /  4.8 km/h 8 mph /  12.9 km/h 98 % 0 in /  0.0 mm
13:22 39 °F /  3.9 °C 38.5 °F /  3.6 °C 30.4 in /  1027.7 hPa South 2 mph /  3.2 km/h 8 mph /  12.9 km/h 98 % 0 in /  0.0 mm
13:27 39.2 °F /  4.0 °C 38.7 °F /  3.7 °C 30.4 in /  1027.7 hPa SSW 5 mph /  8.0 km/h 8 mph /  12.9 km/h 98 % 0 in /  0.0 mm
13:32 39.2 °F /  4.0 °C 38.7 °F /  3.7 °C 30.4 in /  1027.7 hPa South 3 mph /  4.8 km/h 6 mph /  9.7 km/h 98 % 0 in /  0.0 mm
13:37 39.4 °F /  4.1 °C 38.8 °F /  3.8 °C 30.4 in /  1027.7 hPa SSW 2 mph /  3.2 km/h 8 mph /  12.9 km/h 98 % 0 in /  0.0 mm
13:42 39.4 °F /  4.1 °C 38.8 °F /  3.8 °C 30.3 in /  1027.3 hPa SSW 1 mph /  1.6 km/h 8 mph /  12.9 km/h 98 % 0 in /  0.0 mm
13:47 39.6 °F /  4.2 °C 39 °F /  3.9 °C 30.3 in /  1027.3 hPa WSW 4 mph /  6.4 km/h 8 mph /  12.9 km/h 98 % 0 in /  0.0 mm
13:52 39.6 °F /  4.2 °C 39 °F /  3.9 °C 30.3 in /  1027.3 hPa SW 3 mph /  4.8 km/h 7 mph /  11.3 km/h 98 % 0 in /  0.0 mm
13:57 39.7 °F /  4.3 °C 39.2 °F /  4.0 °C 30.3 in /  1027.0 hPa SSW 2 mph /  3.2 km/h 7 mph /  11.3 km/h 98 % 0 in /  0.0 mm
14:02 39.9 °F /  4.4 °C 39.4 °F /  4.1 °C 30.3 in /  1027.0 hPa Calm   7 mph /  11.3 km/h 98 % 0 in /  0.0 mm
14:07 39.9 °F /  4.4 °C 39.4 °F /  4.1 °C 30.3 in /  1027.0 hPa SW 2 mph /  3.2 km/h 6 mph /  9.7 km/h 98 % 0 in /  0.0 mm
14:12 40.3 °F /  4.6 °C 39.7 °F /  4.3 °C 30.3 in /  1027.0 hPa SW 4 mph /  6.4 km/h 5 mph /  8.0 km/h 98 % 0 in /  0.0 mm
14:17 40.3 °F /  4.6 °C 39.7 °F /  4.3 °C 30.3 in /  1026.6 hPa SSW 4 mph /  6.4 km/h 6 mph /  9.7 km/h 98 % 0.01 in /  0.3 mm
14:22 40.5 °F /  4.7 °C 39.9 °F /  4.4 °C 30.3 in /  1026.6 hPa WSW 8 mph /  12.9 km/h 8 mph /  12.9 km/h 98 % 0.01 in /  0.3 mm
14:27 40.5 °F /  4.7 °C 39.9 °F /  4.4 °C 30.3 in /  1026.6 hPa SSW 2 mph /  3.2 km/h 8 mph /  12.9 km/h 98 % 0.01 in /  0.3 mm
14:32 40.5 °F /  4.7 °C 39.9 °F /  4.4 °C 30.3 in /  1026.6 hPa WSW 1 mph /  1.6 km/h 8 mph /  12.9 km/h 98 % 0.01 in /  0.3 mm
14:37 40.5 °F /  4.7 °C 39.9 °F /  4.4 °C 30.3 in /  1026.6 hPa WSW 3 mph /  4.8 km/h 8 mph /  12.9 km/h 98 % 0.01 in /  0.3 mm
14:42 40.6 °F /  4.8 °C 40.1 °F /  4.5 °C 30.3 in /  1026.3 hPa South 2 mph /  3.2 km/h 8 mph /  12.9 km/h 98 % 0.01 in /  0.3 mm
14:47 40.6 °F /  4.8 °C 40.1 °F /  4.5 °C 30.3 in /  1026.3 hPa SW 6 mph /  9.7 km/h 7 mph /  11.3 km/h 98 % 0.02 in /  0.5 mm
14:52 40.8 °F /  4.9 °C 40.3 °F /  4.6 °C 30.3 in /  1026.3 hPa South 3 mph /  4.8 km/h 7 mph /  11.3 km/h 98 % 0.02 in /  0.5 mm
14:57 40.8 °F /  4.9 °C 40.3 °F /  4.6 °C 30.3 in /  1026.3 hPa SW 8 mph /  12.9 km/h 8 mph /  12.9 km/h 98 % 0.02 in /  0.5 mm
15:02 40.8 °F /  4.9 °C 40.3 °F /  4.6 °C 30.3 in /  1026.0 hPa SW 6 mph /  9.7 km/h 8 mph /  12.9 km/h 98 % 0.02 in /  0.5 mm
15:07 40.8 °F /  4.9 °C 40.3 °F /  4.6 °C 30.3 in /  1026.0 hPa SW 3 mph /  4.8 km/h 8 mph /  12.9 km/h 98 % 0.02 in /  0.5 mm
15:12 40.8 °F /  4.9 °C 40.3 °F /  4.6 °C 30.3 in /  1026.0 hPa SW 4 mph /  6.4 km/h 9 mph /  14.5 km/h 98 % 0.02 in /  0.5 mm
15:17 41 °F /  5.0 °C 40.5 °F /  4.7 °C 30.3 in /  1026.0 hPa SSW 3 mph /  4.8 km/h 9 mph /  14.5 km/h 98 % 0.01 in /  0.3 mm
15:22 41 °F /  5.0 °C 40.5 °F /  4.7 °C 30.3 in /  1026.0 hPa West 4 mph /  6.4 km/h 6 mph /  9.7 km/h 98 % 0.01 in /  0.3 mm
15:27 41.2 °F /  5.1 °C 40.6 °F /  4.8 °C 30.3 in /  1026.0 hPa SW 4 mph /  6.4 km/h 7 mph /  11.3 km/h 98 % 0.01 in /  0.3 mm
15:32 41.2 °F /  5.1 °C 40.6 °F /  4.8 °C 30.3 in /  1025.6 hPa SSW 5 mph /  8.0 km/h 10 mph /  16.1 km/h 98 % 0.01 in /  0.3 mm
15:37 41.2 °F /  5.1 °C 40.6 °F /  4.8 °C 30.3 in /  1025.6 hPa WSW 7 mph /  11.3 km/h 10 mph /  16.1 km/h 98 % 0.01 in /  0.3 mm
15:42 41.2 °F /  5.1 °C 40.6 °F /  4.8 °C 30.3 in /  1025.6 hPa SSW 1 mph /  1.6 km/h 10 mph /  16.1 km/h 98 % 0.01 in /  0.3 mm
15:47 41.2 °F /  5.1 °C 40.6 °F /  4.8 °C 30.3 in /  1025.6 hPa West 2 mph /  3.2 km/h 9 mph /  14.5 km/h 98 % 0 in /  0.0 mm
15:52 41.2 °F /  5.1 °C 40.6 °F /  4.8 °C 30.3 in /  1025.6 hPa WSW 6 mph /  9.7 km/h 8 mph /  12.9 km/h 98 % 0 in /  0.0 mm
15:57 41.4 °F /  5.2 °C 40.8 °F /  4.9 °C 30.3 in /  1025.6 hPa West 2 mph /  3.2 km/h 9 mph /  14.5 km/h 98 % 0 in /  0.0 mm
16:02 41.4 °F /  5.2 °C 40.8 °F /  4.9 °C 30.3 in /  1025.6 hPa SW 4 mph /  6.4 km/h 9 mph /  14.5 km/h 98 % 0 in /  0.0 mm
16:07 41.4 °F /  5.2 °C 40.8 °F /  4.9 °C 30.3 in /  1025.6 hPa WSW 3 mph /  4.8 km/h 9 mph /  14.5 km/h 98 % 0 in /  0.0 mm
16:12 41.4 °F /  5.2 °C 40.8 °F /  4.9 °C 30.3 in /  1025.6 hPa SSW 3 mph /  4.8 km/h 8 mph /  12.9 km/h 98 % 0 in /  0.0 mm
16:17 41.4 °F /  5.2 °C 40.8 °F /  4.9 °C 30.3 in /  1025.6 hPa SW 2 mph /  3.2 km/h 7 mph /  11.3 km/h 98 % 0 in /  0.0 mm
16:22 41.4 °F /  5.2 °C 40.8 °F /  4.9 °C 30.3 in /  1025.3 hPa WSW 2 mph /  3.2 km/h 7 mph /  11.3 km/h 98 % 0 in /  0.0 mm
16:27 41.4 °F /  5.2 °C 40.8 °F /  4.9 °C 30.3 in /  1025.3 hPa SW 4 mph /  6.4 km/h 7 mph /  11.3 km/h 98 % 0 in /  0.0 mm
16:37 41.5 °F /  5.3 °C 41 °F /  5.0 °C 30.3 in /  1025.3 hPa Calm   6 mph /  9.7 km/h 98 % 0 in /  0.0 mm
16:42 41.5 °F /  5.3 °C 41 °F /  5.0 °C 30.3 in /  1025.3 hPa Calm   6 mph /  9.7 km/h 98 % 0 in /  0.0 mm
16:47 41.5 °F /  5.3 °C 41 °F /  5.0 °C 30.3 in /  1024.9 hPa South 1 mph /  1.6 km/h 3 mph /  4.8 km/h 98 % 0 in /  0.0 mm
16:52 41.5 °F /  5.3 °C 41 °F /  5.0 °C 30.3 in /  1024.9 hPa SSW 1 mph /  1.6 km/h 2 mph /  3.2 km/h 98 % 0 in /  0.0 mm
16:57 41.5 °F /  5.3 °C 41 °F /  5.0 °C 30.3 in /  1024.9 hPa Calm   5 mph /  8.0 km/h 98 % 0 in /  0.0 mm
17:02 41.5 °F /  5.3 °C 41 °F /  5.0 °C 30.3 in /  1024.9 hPa WSW 2 mph /  3.2 km/h 5 mph /  8.0 km/h 98 % 0 in /  0.0 mm
17:07 41.5 °F /  5.3 °C 41 °F /  5.0 °C 30.3 in /  1024.9 hPa SW 5 mph /  8.0 km/h 5 mph /  8.0 km/h 98 % 0 in /  0.0 mm
17:12 41.7 °F /  5.4 °C 41.2 °F /  5.1 °C 30.3 in /  1024.9 hPa SW 4 mph /  6.4 km/h 6 mph /  9.7 km/h 98 % 0 in /  0.0 mm
17:17 41.7 °F /  5.4 °C 41.2 °F /  5.1 °C 30.3 in /  1024.9 hPa SW 3 mph /  4.8 km/h 8 mph /  12.9 km/h 98 % 0 in /  0.0 mm
17:22 41.7 °F /  5.4 °C 41.2 °F /  5.1 °C 30.3 in /  1024.9 hPa SW 1 mph /  1.6 km/h 8 mph /  12.9 km/h 98 % 0 in /  0.0 mm
17:32 41.7 °F /  5.4 °C 41.2 °F /  5.1 °C 30.3 in /  1024.6 hPa South 1 mph /  1.6 km/h 6 mph /  9.7 km/h 98 % 0 in /  0.0 mm
17:42 41.7 °F /  5.4 °C 41.2 °F /  5.1 °C 30.3 in /  1024.6 hPa WSW 3 mph /  4.8 km/h 8 mph /  12.9 km/h 98 % 0 in /  0.0 mm
17:52 41.7 °F /  5.4 °C 41.2 °F /  5.1 °C 30.3 in /  1024.6 hPa SW 3 mph /  4.8 km/h 8 mph /  12.9 km/h 98 % 0.01 in /  0.3 mm
17:57 41.7 °F /  5.4 °C 41.2 °F /  5.1 °C 30.3 in /  1024.3 hPa South 5 mph /  8.0 km/h 8 mph /  12.9 km/h 98 % 0.02 in /  0.5 mm
18:02 41.7 °F /  5.4 °C 41.2 °F /  5.1 °C 30.3 in /  1024.3 hPa WSW 4 mph /  6.4 km/h 8 mph /  12.9 km/h 98 % 0.02 in /  0.5 mm
18:12 41.7 °F /  5.4 °C 41.2 °F /  5.1 °C 30.3 in /  1024.3 hPa SW 4 mph /  6.4 km/h 7 mph /  11.3 km/h 98 % 0.02 in /  0.5 mm
18:17 41.7 °F /  5.4 °C 41.2 °F /  5.1 °C 30.3 in /  1024.3 hPa SW 5 mph /  8.0 km/h 7 mph /  11.3 km/h 98 % 0.02 in /  0.5 mm
18:22 41.7 °F /  5.4 °C 41.2 °F /  5.1 °C 30.3 in /  1024.3 hPa SW 6 mph /  9.7 km/h 8 mph /  12.9 km/h 98 % 0.02 in /  0.5 mm
18:27 41.7 °F /  5.4 °C 41.2 °F /  5.1 °C 30.2 in /  1023.9 hPa SW 4 mph /  6.4 km/h 8 mph /  12.9 km/h 98 % 0.02 in /  0.5 mm
18:32 41.7 °F /  5.4 °C 41.2 °F /  5.1 °C 30.2 in /  1023.9 hPa SW 4 mph /  6.4 km/h 10 mph /  16.1 km/h 98 % 0.02 in /  0.5 mm
18:37 41.5 °F /  5.3 °C 41 °F /  5.0 °C 30.2 in /  1023.6 hPa SSW 2 mph /  3.2 km/h 10 mph /  16.1 km/h 98 % 0.02 in /  0.5 mm
18:47 41.7 °F /  5.4 °C 41.2 °F /  5.1 °C 30.2 in /  1023.6 hPa SW 6 mph /  9.7 km/h 8 mph /  12.9 km/h 98 % 0.01 in /  0.3 mm
18:52 41.7 °F /  5.4 °C 41.2 °F /  5.1 °C 30.2 in /  1023.2 hPa SW 6 mph /  9.7 km/h 9 mph /  14.5 km/h 98 % 0 in /  0.0 mm
19:02 41.5 °F /  5.3 °C 41 °F /  5.0 °C 30.2 in /  1023.2 hPa SW 5 mph /  8.0 km/h 10 mph /  16.1 km/h 98 % 0 in /  0.0 mm
19:07 41.5 °F /  5.3 °C 41 °F /  5.0 °C 30.2 in /  1023.2 hPa WSW 2 mph /  3.2 km/h 9 mph /  14.5 km/h 98 % 0 in /  0.0 mm
19:12 41.7 °F /  5.4 °C 41.2 °F /  5.1 °C 30.2 in /  1023.2 hPa SW 3 mph /  4.8 km/h 8 mph /  12.9 km/h 98 % 0 in /  0.0 mm
19:22 41.7 °F /  5.4 °C 41.2 °F /  5.1 °C 30.2 in /  1023.2 hPa SSW 2 mph /  3.2 km/h 8 mph /  12.9 km/h 98 % 0 in /  0.0 mm
19:27 41.7 °F /  5.4 °C 41.2 °F /  5.1 °C 30.2 in /  1023.2 hPa WSW 3 mph /  4.8 km/h 8 mph /  12.9 km/h 98 % 0 in /  0.0 mm
19:32 41.7 °F /  5.4 °C 41.2 °F /  5.1 °C 30.2 in /  1022.9 hPa SW 3 mph /  4.8 km/h 8 mph /  12.9 km/h 98 % 0 in /  0.0 mm
19:42 41.5 °F /  5.3 °C 41 °F /  5.0 °C 30.2 in /  1022.9 hPa SW 2 mph /  3.2 km/h 7 mph /  11.3 km/h 98 % 0 in /  0.0 mm
19:47 41.5 °F /  5.3 °C 41 °F /  5.0 °C 30.2 in /  1022.9 hPa SW 1 mph /  1.6 km/h 5 mph /  8.0 km/h 98 % 0 in /  0.0 mm
19:52 41.5 °F /  5.3 °C 41 °F /  5.0 °C 30.2 in /  1022.9 hPa SSW 3 mph /  4.8 km/h 5 mph /  8.0 km/h 98 % 0 in /  0.0 mm
19:57 41.5 °F /  5.3 °C 41 °F /  5.0 °C 30.2 in /  1022.6 hPa SW 6 mph /  9.7 km/h 6 mph /  9.7 km/h 98 % 0 in /  0.0 mm
20:02 41.5 °F /  5.3 °C 41 °F /  5.0 °C 30.2 in /  1022.6 hPa SSW 2 mph /  3.2 km/h 7 mph /  11.3 km/h 98 % 0 in /  0.0 mm
20:07 41.5 °F /  5.3 °C 41 °F /  5.0 °C 30.2 in /  1022.6 hPa SSW 4 mph /  6.4 km/h 7 mph /  11.3 km/h 98 % 0 in /  0.0 mm
20:12 41.4 °F /  5.2 °C 40.8 °F /  4.9 °C 30.2 in /  1022.2 hPa SSW 2 mph /  3.2 km/h 7 mph /  11.3 km/h 98 % 0 in /  0.0 mm
20:17 41.5 °F /  5.3 °C 41 °F /  5.0 °C 30.2 in /  1022.2 hPa SW 5 mph /  8.0 km/h 6 mph /  9.7 km/h 98 % 0 in /  0.0 mm
20:22 41.5 °F /  5.3 °C 41 °F /  5.0 °C 30.2 in /  1022.2 hPa SW 5 mph /  8.0 km/h 10 mph /  16.1 km/h 98 % 0 in /  0.0 mm
20:32 41.5 °F /  5.3 °C 41 °F /  5.0 °C 30.2 in /  1021.9 hPa SSW 5 mph /  8.0 km/h 10 mph /  16.1 km/h 98 % 0 in /  0.0 mm
20:37 41.5 °F /  5.3 °C 41 °F /  5.0 °C 30.2 in /  1021.9 hPa South 3 mph /  4.8 km/h 9 mph /  14.5 km/h 98 % 0 in /  0.0 mm
20:42 41.5 °F /  5.3 °C 41 °F /  5.0 °C 30.2 in /  1021.6 hPa SSW 4 mph /  6.4 km/h 9 mph /  14.5 km/h 98 % 0 in /  0.0 mm
20:52 41.5 °F /  5.3 °C 41 °F /  5.0 °C 30.2 in /  1021.6 hPa South 4 mph /  6.4 km/h 9 mph /  14.5 km/h 98 % 0 in /  0.0 mm
21:02 41.5 °F /  5.3 °C 41 °F /  5.0 °C 30.2 in /  1021.2 hPa SW 4 mph /  6.4 km/h 9 mph /  14.5 km/h 98 % 0 in /  0.0 mm
21:12 41.5 °F /  5.3 °C 41 °F /  5.0 °C 30.2 in /  1021.2 hPa SW 5 mph /  8.0 km/h 8 mph /  12.9 km/h 98 % 0.01 in /  0.3 mm
21:17 41.5 °F /  5.3 °C 41 °F /  5.0 °C 30.2 in /  1020.9 hPa SW 9 mph /  14.5 km/h 9 mph /  14.5 km/h 98 % 0.01 in /  0.3 mm
21:22 41.5 °F /  5.3 °C 41 °F /  5.0 °C 30.2 in /  1020.9 hPa SW 5 mph /  8.0 km/h 10 mph /  16.1 km/h 98 % 0.01 in /  0.3 mm
21:27 41.5 °F /  5.3 °C 41 °F /  5.0 °C 30.2 in /  1020.9 hPa SSW 5 mph /  8.0 km/h 10 mph /  16.1 km/h 98 % 0.01 in /  0.3 mm
21:32 41.5 °F /  5.3 °C 41 °F /  5.0 °C 30.2 in /  1020.9 hPa SW 2 mph /  3.2 km/h 10 mph /  16.1 km/h 98 % 0.01 in /  0.3 mm
21:42 41.7 °F /  5.4 °C 41.2 °F /  5.1 °C 30.1 in /  1020.5 hPa SSW 1 mph /  1.6 km/h 8 mph /  12.9 km/h 98 % 0.01 in /  0.3 mm
21:47 41.7 °F /  5.4 °C 41.2 °F /  5.1 °C 30.1 in /  1020.5 hPa SW 3 mph /  4.8 km/h 8 mph /  12.9 km/h 98 % 0.01 in /  0.3 mm
21:52 41.7 °F /  5.4 °C 41.2 °F /  5.1 °C 30.1 in /  1020.5 hPa SW 4 mph /  6.4 km/h 7 mph /  11.3 km/h 98 % 0.01 in /  0.3 mm
22:02 41.7 °F /  5.4 °C 41.2 °F /  5.1 °C 30.1 in /  1020.2 hPa SW 4 mph /  6.4 km/h 10 mph /  16.1 km/h 98 % 0.01 in /  0.3 mm
22:07 41.7 °F /  5.4 °C 41.2 °F /  5.1 °C 30.1 in /  1020.2 hPa SW 6 mph /  9.7 km/h 10 mph /  16.1 km/h 98 % 0 in /  0.0 mm
22:17 41.7 °F /  5.4 °C 41.2 °F /  5.1 °C 30.1 in /  1020.2 hPa WSW 3 mph /  4.8 km/h 11 mph /  17.7 km/h 98 % 0 in /  0.0 mm
22:22 41.7 °F /  5.4 °C 41.2 °F /  5.1 °C 30.1 in /  1019.9 hPa WSW 8 mph /  12.9 km/h 11 mph /  17.7 km/h 98 % 0 in /  0.0 mm
22:27 41.7 °F /  5.4 °C 41.2 °F /  5.1 °C 30.1 in /  1019.9 hPa SW 8 mph /  12.9 km/h 13 mph /  20.9 km/h 98 % 0 in /  0.0 mm
22:32 41.7 °F /  5.4 °C 41.2 °F /  5.1 °C 30.1 in /  1019.9 hPa SSW 5 mph /  8.0 km/h 13 mph /  20.9 km/h 98 % 0 in /  0.0 mm
22:42 41.7 °F /  5.4 °C 41.2 °F /  5.1 °C 30.1 in /  1019.5 hPa SW 5 mph /  8.0 km/h 11 mph /  17.7 km/h 98 % 0 in /  0.0 mm
22:47 41.5 °F /  5.3 °C 41 °F /  5.0 °C 30.1 in /  1019.5 hPa SW 3 mph /  4.8 km/h 11 mph /  17.7 km/h 98 % 0 in /  0.0 mm
22:57 41.5 °F /  5.3 °C 41 °F /  5.0 °C 30.1 in /  1019.2 hPa SW 10 mph /  16.1 km/h 10 mph /  16.1 km/h 98 % 0.01 in /  0.3 mm
23:02 41.7 °F /  5.4 °C 41.2 °F /  5.1 °C 30.1 in /  1019.2 hPa WSW 7 mph /  11.3 km/h 12 mph /  19.3 km/h 98 % 0.01 in /  0.3 mm
23:12 41.7 °F /  5.4 °C 41.2 °F /  5.1 °C 30.1 in /  1019.2 hPa SW 4 mph /  6.4 km/h 14 mph /  22.5 km/h 98 % 0.01 in /  0.3 mm
23:17 41.7 °F /  5.4 °C 41.2 °F /  5.1 °C 30.1 in /  1018.8 hPa WSW 5 mph /  8.0 km/h 14 mph /  22.5 km/h 98 % 0.01 in /  0.3 mm
23:27 41.7 °F /  5.4 °C 41.2 °F /  5.1 °C 30.1 in /  1018.8 hPa WSW 9 mph /  14.5 km/h 11 mph /  17.7 km/h 98 % 0.02 in /  0.5 mm
23:32 41.7 °F /  5.4 °C 41.2 °F /  5.1 °C 30.1 in /  1018.8 hPa SW 3 mph /  4.8 km/h 11 mph /  17.7 km/h 98 % 0.02 in /  0.5 mm
23:37 41.7 °F /  5.4 °C 41.2 °F /  5.1 °C 30.1 in /  1018.5 hPa SW 2 mph /  3.2 km/h 11 mph /  17.7 km/h 98 % 0.02 in /  0.5 mm
23:42 41.7 °F /  5.4 °C 41.2 °F /  5.1 °C 30.1 in /  1018.5 hPa SSW 4 mph /  6.4 km/h 10 mph /  16.1 km/h 98 % 0.02 in /  0.5 mm
23:47 41.7 °F /  5.4 °C 41.2 °F /  5.1 °C 30.1 in /  1018.5 hPa WSW 3 mph /  4.8 km/h 10 mph /  16.1 km/h 98 % 0.02 in /  0.5 mm
23:52 41.7 °F /  5.4 °C 41.2 °F /  5.1 °C 30.1 in /  1018.5 hPa SW 5 mph /  8.0 km/h 9 mph /  14.5 km/h 98 % 0.02 in /  0.5 mm
23:57 41.9 °F /  5.5 °C 41.4 °F /  5.2 °C 30.1 in /  1018.2 hPa WSW 5 mph /  8.0 km/h 10 mph /  16.1 km/h 98 % 0.02 in /  0.5 mm
Meteo18
Compliments of Weather Underground - 4 mb

Script developed by  Jim McMurry - jmcmurry@mwt.net Adapted for the template by  Wim van der Kuil - Leuven-Template.eu

You find our weather info also at:

European Weather Network

Weather Underground

Equipment we use:

Weather-station
Davis Vue

Weather-program
Meteohub

Weather-server
Raspberry PI 2 B+

Provider
1 and 1

Davis Vue

Meteohub

Raspberry PI 2 B+

1 and 1